createdAt,value
2019-01-20T00:01:04.302Z,100719.30
2019-01-20T00:05:10.698Z,100718.91
2019-01-20T00:09:15.647Z,100721.09
2019-01-20T00:13:21.001Z,100727.97
2019-01-20T00:17:26.048Z,100730.55
2019-01-20T00:21:31.218Z,100731.84
2019-01-20T00:25:36.618Z,100729.27
2019-01-20T00:29:41.643Z,100732.27
2019-01-20T00:33:46.944Z,100736.16
2019-01-20T00:37:52.078Z,100734.88
2019-01-20T00:41:57.469Z,100727.57
2019-01-20T00:46:02.590Z,100730.16
2019-01-20T00:50:08.779Z,100722.83
2019-01-20T00:54:14.092Z,100727.56
2019-01-20T00:58:19.228Z,100721.98
2019-01-20T01:02:24.560Z,100723.26
2019-01-20T01:06:29.648Z,100724.55
2019-01-20T01:10:34.779Z,100719.83
2019-01-20T01:14:39.870Z,100718.09
2019-01-20T01:18:44.900Z,100721.53
2019-01-20T01:22:49.967Z,100722.39
2019-01-20T01:26:55.080Z,100720.25
2019-01-20T01:31:00.154Z,100722.39
2019-01-20T01:35:05.826Z,100723.25
2019-01-20T01:39:10.892Z,100724.56
2019-01-20T01:43:15.905Z,100731.45
2019-01-20T01:47:20.943Z,100732.31
2019-01-20T01:51:26.093Z,100740.45
2019-01-20T01:55:31.156Z,100738.33
2019-01-20T01:59:36.242Z,100739.16
2019-01-20T02:03:41.364Z,100734.44
2019-01-20T02:07:46.583Z,100737.03
2019-01-20T02:11:51.735Z,100744.77
2019-01-20T02:15:56.788Z,100744.77
2019-01-20T02:20:01.882Z,100739.59
2019-01-20T02:24:07.023Z,100736.61
2019-01-20T02:28:12.165Z,100748.63
2019-01-20T02:32:17.158Z,100744.77
2019-01-20T02:36:22.254Z,100743.47
2019-01-20T02:40:27.646Z,100736.59
2019-01-20T02:44:32.670Z,100740.02
2019-01-20T02:48:37.703Z,100740.03
2019-01-20T02:52:42.802Z,100745.20
2019-01-20T02:56:47.847Z,100745.63
2019-01-20T03:00:52.858Z,100747.35
2019-01-20T03:04:58.032Z,100744.77
2019-01-20T03:09:04.730Z,100749.91
2019-01-20T03:13:09.956Z,100742.63
2019-01-20T03:17:15.007Z,100743.47
2019-01-20T03:21:19.973Z,100731.44
2019-01-20T03:25:26.126Z,100733.58
2019-01-20T03:29:31.206Z,100726.70
2019-01-20T03:33:36.511Z,100728.42
2019-01-20T03:37:41.574Z,100745.59
2019-01-20T03:41:46.681Z,100737.86
2019-01-20T03:45:51.748Z,100743.02
2019-01-20T03:49:56.853Z,100740.02
2019-01-20T03:54:01.972Z,100732.28
2019-01-20T03:58:07.038Z,100728.84
2019-01-20T04:02:12.048Z,100737.00
2019-01-20T04:06:17.032Z,100735.72
2019-01-20T04:10:22.068Z,100731.84
2019-01-20T04:14:27.222Z,100730.56
2019-01-20T04:18:32.190Z,100735.28
2019-01-20T04:22:37.281Z,100728.81
2019-01-20T04:26:42.275Z,100738.27
2019-01-20T04:30:47.599Z,100734.79
2019-01-20T04:34:52.682Z,100737.78
2019-01-20T04:38:57.790Z,100735.64
2019-01-20T04:43:02.840Z,100735.25
2019-01-20T04:47:07.862Z,100731.82
2019-01-20T04:51:13.042Z,100730.53
2019-01-20T04:55:19.057Z,100734.83
2019-01-20T04:59:24.054Z,100732.64
2019-01-20T05:03:29.016Z,100733.11
2019-01-20T05:07:34.106Z,100739.93
2019-01-20T05:11:39.209Z,100736.45
2019-01-20T05:15:44.297Z,100735.59
2019-01-20T05:19:49.264Z,100733.45
2019-01-20T05:23:54.564Z,100744.16
2019-01-20T05:27:59.607Z,100745.83
2019-01-20T05:32:04.709Z,100743.74
2019-01-20T05:36:09.789Z,100751.84
2019-01-20T05:40:17.245Z,100744.66
2019-01-20T05:44:22.654Z,100748.52
2019-01-20T05:48:27.789Z,100743.38
2019-01-20T05:52:32.820Z,100746.80
2019-01-20T05:56:37.869Z,100766.83
2019-01-20T06:00:42.904Z,100768.16
2019-01-20T06:04:47.995Z,100776.21
2019-01-20T06:08:53.128Z,100780.41
2019-01-20T06:12:58.176Z,100785.45
2019-01-20T06:17:03.281Z,100784.96
2019-01-20T06:21:08.410Z,100794.87
2019-01-20T06:25:13.635Z,100797.02
2019-01-20T06:29:19.080Z,100802.05
2019-01-20T06:33:24.117Z,100814.19
2019-01-20T06:37:29.185Z,100809.89
2019-01-20T06:41:34.228Z,100815.84
2019-01-20T06:45:39.324Z,100822.34
2019-01-20T06:49:44.251Z,100829.20
2019-01-20T06:53:49.253Z,100828.90
2019-01-20T06:57:54.335Z,100831.88
2019-01-20T07:01:59.868Z,100827.09
2019-01-20T07:06:05.287Z,100832.73
2019-01-20T07:10:10.911Z,100833.77
2019-01-20T07:14:15.936Z,100839.27
2019-01-20T07:18:21.070Z,100844.00
2019-01-20T07:22:26.147Z,100842.36
2019-01-20T07:26:31.279Z,100854.37
2019-01-20T07:30:37.558Z,100860.51
2019-01-20T07:34:42.611Z,100870.80
2019-01-20T07:38:47.713Z,100873.80
2019-01-20T07:42:52.787Z,100877.23
2019-01-20T07:46:57.807Z,100874.31
2019-01-20T07:51:03.076Z,100884.98
2019-01-20T07:55:08.815Z,100884.97
2019-01-20T07:59:14.719Z,100891.88
2019-01-20T08:03:20.080Z,100901.42
2019-01-20T08:07:27.222Z,100897.20
2019-01-20T08:11:32.217Z,100899.78
2019-01-20T08:15:37.369Z,100902.47
2019-01-20T08:19:42.472Z,100903.34
2019-01-20T08:23:47.411Z,100907.65
2019-01-20T08:27:52.564Z,100906.91
2019-01-20T08:31:57.662Z,100920.27
2019-01-20T08:36:02.772Z,100920.67
2019-01-20T08:40:11.097Z,100923.26
2019-01-20T08:44:15.998Z,100928.03
2019-01-20T08:48:22.067Z,100934.05
2019-01-20T08:52:27.035Z,100941.36
2019-01-20T08:56:32.136Z,100949.95
2019-01-20T09:00:37.262Z,100949.54
2019-01-20T09:04:42.273Z,100954.70
2019-01-20T09:08:47.239Z,100962.35
2019-01-20T09:12:52.425Z,100958.53
2019-01-20T09:16:57.545Z,100972.45
2019-01-20T09:21:02.611Z,100978.80
2019-01-20T09:25:08.605Z,100978.80
2019-01-20T09:29:13.616Z,100981.52
2019-01-20T09:33:24.525Z,100985.63
2019-01-20T09:37:25.525Z,100990.98
2019-01-20T09:41:30.853Z,100994.93
2019-01-20T09:45:36.594Z,100997.99
2019-01-20T09:49:41.729Z,100999.93
2019-01-20T09:53:47.304Z,101002.52
2019-01-20T09:57:52.441Z,101008.38
2019-01-20T10:01:57.599Z,101013.25
2019-01-20T10:06:02.657Z,101018.98
2019-01-20T10:10:09.622Z,101024.66
2019-01-20T10:14:14.541Z,101023.03
2019-01-20T10:18:19.849Z,101027.60
2019-01-20T10:22:24.889Z,101021.77
2019-01-20T10:26:29.946Z,101030.36
2019-01-20T10:30:36.339Z,101040.40
2019-01-20T10:34:41.563Z,101033.36
2019-01-20T10:38:46.547Z,101047.52
2019-01-20T10:42:51.609Z,101052.16
2019-01-20T10:46:56.644Z,101050.95
2019-01-20T10:51:01.771Z,101055.92
2019-01-20T10:55:07.207Z,101055.27
2019-01-20T10:59:12.184Z,101049.34
2019-01-20T11:03:17.274Z,101044.96
2019-01-20T11:07:22.176Z,101040.83
2019-01-20T11:11:27.208Z,101043.56
2019-01-20T11:15:32.208Z,101050.33
2019-01-20T11:19:37.248Z,101041.89
2019-01-20T11:23:42.321Z,101040.79
2019-01-20T11:27:47.363Z,101052.53
2019-01-20T11:31:52.395Z,101046.84
2019-01-20T11:35:57.395Z,101053.11
2019-01-20T11:40:02.447Z,101047.24
2019-01-20T11:44:07.491Z,101046.67
2019-01-20T11:48:12.540Z,101046.38
2019-01-20T11:52:17.587Z,101050.74
2019-01-20T11:56:22.500Z,101057.88
2019-01-20T12:00:30.045Z,101059.03
2019-01-20T12:04:35.147Z,101052.48
2019-01-20T12:08:40.210Z,101046.48
2019-01-20T12:12:47.837Z,101042.21
2019-01-20T12:16:53.025Z,101039.12
2019-01-20T12:20:59.603Z,101043.97
2019-01-20T12:25:05.367Z,101039.72
2019-01-20T12:29:10.481Z,101041.14
2019-01-20T12:33:15.616Z,101039.73
2019-01-20T12:37:21.081Z,101046.36
2019-01-20T12:41:26.110Z,101041.91
2019-01-20T12:45:31.178Z,101042.41
2019-01-20T12:49:36.190Z,101047.11
2019-01-20T12:53:41.284Z,101045.52
2019-01-20T12:57:46.467Z,101042.95
2019-01-20T13:01:51.474Z,101046.57
2019-01-20T13:05:56.601Z,101052.71
2019-01-20T13:10:01.719Z,101047.66
2019-01-20T13:14:07.778Z,101043.44
2019-01-20T13:18:12.889Z,101042.31
2019-01-20T13:22:17.921Z,101046.10
2019-01-20T13:26:22.943Z,101049.84
2019-01-20T13:30:29.265Z,101043.91
2019-01-20T13:34:34.377Z,101047.88
2019-01-20T13:38:39.510Z,101043.92
2019-01-20T13:42:44.903Z,101047.35
2019-01-20T13:46:49.951Z,101051.55
2019-01-20T13:50:55.220Z,101052.74
2019-01-20T13:55:00.292Z,101049.90
2019-01-20T13:59:05.460Z,101054.69
2019-01-20T14:03:10.689Z,101051.80
2019-01-20T14:07:15.706Z,101051.28
2019-01-20T14:11:20.723Z,101055.55
2019-01-20T14:15:25.779Z,101050.06
2019-01-20T14:19:30.804Z,101055.28
2019-01-20T14:23:35.904Z,101061.42
2019-01-20T14:27:40.937Z,101060.58
2019-01-20T14:31:46.069Z,101060.28
2019-01-20T14:35:51.132Z,101067.83
2019-01-20T14:39:56.219Z,101065.52
2019-01-20T14:44:01.520Z,101076.77
2019-01-20T14:48:06.598Z,101083.02
2019-01-20T14:52:12.606Z,101081.81
2019-01-20T14:56:19.131Z,101081.66
2019-01-20T15:00:30.386Z,101085.34
2019-01-20T15:04:42.952Z,101088.00
2019-01-20T15:08:48.305Z,101080.16
2019-01-20T15:12:53.971Z,101089.44
2019-01-20T15:17:01.057Z,101095.42
2019-01-20T15:21:16.073Z,101103.86
2019-01-20T15:25:23.976Z,101092.50
2019-01-20T15:29:40.266Z,101100.97
2019-01-20T15:33:48.851Z,101102.70
2019-01-20T15:38:23.800Z,101108.27
2019-01-20T15:42:29.520Z,101115.77
2019-01-20T15:51:30.676Z,101121.64
2019-01-20T15:55:38.663Z,101135.60
2019-01-20T16:00:13.156Z,101137.37
2019-01-20T16:04:52.785Z,101142.67
2019-01-20T16:09:04.186Z,101161.89
2019-01-20T16:17:59.402Z,101168.23
2019-01-20T16:27:30.925Z,101182.13
2019-01-20T16:31:39.765Z,101188.58
2019-01-20T16:35:42.908Z,101194.22
2019-01-20T16:39:48.026Z,101190.35
2019-01-20T16:43:53.102Z,101190.84
2019-01-20T16:47:58.227Z,101188.32
2019-01-20T16:52:05.695Z,101187.42
2019-01-20T16:56:17.432Z,101196.05
2019-01-20T17:00:30.102Z,101208.67
2019-01-20T17:04:35.728Z,101203.07
2019-01-20T17:08:40.848Z,101207.80
2019-01-20T17:12:46.248Z,101213.02
2019-01-20T17:16:51.412Z,101212.28
2019-01-20T17:20:56.601Z,101223.49
2019-01-20T17:25:01.624Z,101225.25
2019-01-20T17:29:06.758Z,101225.69
2019-01-20T17:33:13.042Z,101226.99
2019-01-20T17:37:18.115Z,101232.20
2019-01-20T17:41:23.504Z,101237.79
2019-01-20T17:45:30.745Z,101241.70
2019-01-20T17:49:35.908Z,101237.83
2019-01-20T17:53:40.880Z,101241.29
2019-01-20T17:57:46.136Z,101245.16
2019-01-20T18:01:51.262Z,101240.42
2019-01-20T18:05:56.597Z,101238.26
2019-01-20T18:10:01.800Z,101246.01
2019-01-20T18:14:07.908Z,101249.90
2019-01-20T18:18:13.128Z,101246.47
2019-01-20T18:22:18.107Z,101249.45
2019-01-20T18:26:23.149Z,101250.31
2019-01-20T18:30:29.361Z,101261.13
2019-01-20T18:34:34.390Z,101265.84
2019-01-20T18:38:39.891Z,101262.85
2019-01-20T18:42:44.988Z,101276.22
2019-01-20T18:46:50.107Z,101284.77
2019-01-20T18:50:55.140Z,101281.70
2019-01-20T18:55:00.569Z,101290.33
2019-01-20T18:59:05.703Z,101303.08
2019-01-20T19:03:10.960Z,101299.97
2019-01-20T19:07:16.088Z,101303.36
2019-01-20T19:11:21.312Z,101308.07
2019-01-20T19:15:26.445Z,101301.36
2019-01-20T19:19:31.507Z,101310.48
2019-01-20T19:23:36.667Z,101312.35
2019-01-20T19:27:41.692Z,101317.39
2019-01-20T19:31:46.996Z,101329.92
2019-01-20T19:35:52.051Z,101336.05
2019-01-20T19:39:57.147Z,101331.77
2019-01-20T19:44:02.150Z,101340.52
2019-01-20T19:48:12.993Z,101342.42
2019-01-20T19:52:14.043Z,101341.53
2019-01-20T19:56:19.152Z,101352.27
2019-01-20T20:00:24.979Z,101356.85
2019-01-20T20:04:30.040Z,101355.45
2019-01-20T20:08:35.422Z,101358.56
2019-01-20T20:12:41.337Z,101360.89
2019-01-20T20:16:47.490Z,101364.94
2019-01-20T20:20:52.587Z,101366.80
2019-01-20T20:24:57.606Z,101373.01
2019-01-20T20:29:02.918Z,101376.41
2019-01-20T20:33:08.195Z,101379.35
2019-01-20T20:37:13.344Z,101380.66
2019-01-20T20:41:18.420Z,101386.58
2019-01-20T20:45:24.119Z,101399.61
2019-01-20T20:49:29.461Z,101399.61
2019-01-20T20:53:34.587Z,101403.16
2019-01-20T20:57:39.681Z,101411.86
2019-01-20T21:01:44.819Z,101417.02
2019-01-20T21:05:50.010Z,101411.58
2019-01-20T21:09:56.476Z,101414.59
2019-01-20T21:14:01.675Z,101423.66
2019-01-20T21:18:06.892Z,101427.08
2019-01-20T21:22:12.042Z,101433.55
2019-01-20T21:26:17.085Z,101436.81
2019-01-20T21:30:24.029Z,101440.17
2019-01-20T21:34:29.200Z,101445.31
2019-01-20T21:38:34.367Z,101443.09
2019-01-20T21:42:39.511Z,101447.47
2019-01-20T21:46:45.373Z,101451.57
2019-01-20T21:50:50.859Z,101450.45
2019-01-20T21:54:56.008Z,101454.48
2019-01-20T21:59:02.429Z,101462.34
2019-01-20T22:03:07.490Z,101460.14
2019-01-20T22:07:12.607Z,101468.31
2019-01-20T22:11:17.787Z,101471.90
2019-01-20T22:15:22.948Z,101472.91
2019-01-20T22:19:28.217Z,101481.88
2019-01-20T22:23:33.270Z,101478.22
2019-01-20T22:27:38.378Z,101472.84
2019-01-20T22:31:43.543Z,101488.67
2019-01-20T22:35:48.695Z,101487.53
2019-01-20T22:39:53.842Z,101495.58
2019-01-20T22:43:59.034Z,101508.13
2019-01-20T22:48:04.098Z,101497.54
2019-01-20T22:52:10.213Z,101506.45
2019-01-20T22:56:15.346Z,101506.56
2019-01-20T23:01:19.330Z,101511.09
2019-01-20T23:05:24.409Z,101518.75
2019-01-20T23:09:29.583Z,101516.58
2019-01-20T23:13:34.705Z,101514.88
2019-01-20T23:17:39.780Z,101516.36
2019-01-20T23:21:44.950Z,101522.49
2019-01-20T23:25:49.980Z,101522.47
2019-01-20T23:29:55.500Z,101522.64
2019-01-20T23:34:00.559Z,101527.34
2019-01-20T23:38:05.707Z,101527.54
2019-01-20T23:42:10.894Z,101519.83
2019-01-20T23:46:15.917Z,101519.06
2019-01-20T23:50:21.055Z,101519.75
2019-01-20T23:54:26.186Z,101520.76
2019-01-20T23:58:31.315Z,101514.84
